sensor_id;sensor_type;location;lat;lon;timestamp;P1;durP1;ratioP1;P2;durP2;ratioP2
15990;SDS011;8100;50.994;4.538;2023-12-20T00:02:42;5.68;;;1.13;;
15990;SDS011;8100;50.994;4.538;2023-12-20T00:05:32;6.45;;;1.20;;
15990;SDS011;8100;50.994;4.538;2023-12-20T00:08:20;5.22;;;0.80;;
15990;SDS011;8100;50.994;4.538;2023-12-20T00:11:07;4.05;;;1.00;;
15990;SDS011;8100;50.994;4.538;2023-12-20T00:13:54;3.97;;;0.85;;
15990;SDS011;8100;50.994;4.538;2023-12-20T00:16:41;5.40;;;1.25;;
15990;SDS011;8100;50.994;4.538;2023-12-20T00:19:30;2.72;;;0.90;;
15990;SDS011;8100;50.994;4.538;2023-12-20T00:22:27;4.53;;;1.23;;
15990;SDS011;8100;50.994;4.538;2023-12-20T00:25:14;7.20;;;1.10;;
15990;SDS011;8100;50.994;4.538;2023-12-20T00:28:01;4.40;;;1.08;;
15990;SDS011;8100;50.994;4.538;2023-12-20T00:30:48;4.35;;;1.02;;
15990;SDS011;8100;50.994;4.538;2023-12-20T00:33:35;2.85;;;0.95;;
15990;SDS011;8100;50.994;4.538;2023-12-20T00:36:23;1.73;;;0.80;;
15990;SDS011;8100;50.994;4.538;2023-12-20T00:39:10;3.78;;;0.93;;
15990;SDS011;8100;50.994;4.538;2023-12-20T00:41:57;3.50;;;0.93;;
15990;SDS011;8100;50.994;4.538;2023-12-20T00:44:44;2.05;;;0.93;;
15990;SDS011;8100;50.994;4.538;2023-12-20T00:47:31;6.47;;;0.95;;
15990;SDS011;8100;50.994;4.538;2023-12-20T00:50:18;6.20;;;1.10;;
15990;SDS011;8100;50.994;4.538;2023-12-20T00:53:08;3.00;;;1.00;;
15990;SDS011;8100;50.994;4.538;2023-12-20T00:55:55;1.80;;;0.80;;
15990;SDS011;8100;50.994;4.538;2023-12-20T00:58:48;4.00;;;0.80;;
15990;SDS011;8100;50.994;4.538;2023-12-20T01:01:35;2.17;;;0.80;;
15990;SDS011;8100;50.994;4.538;2023-12-20T01:04:22;1.83;;;0.75;;
15990;SDS011;8100;50.994;4.538;2023-12-20T01:07:09;3.28;;;0.75;;
15990;SDS011;8100;50.994;4.538;2023-12-20T01:09:57;6.68;;;0.90;;
15990;SDS011;8100;50.994;4.538;2023-12-20T01:12:44;3.38;;;0.77;;
15990;SDS011;8100;50.994;4.538;2023-12-20T01:15:31;3.83;;;1.10;;
15990;SDS011;8100;50.994;4.538;2023-12-20T01:18:18;4.60;;;0.98;;
15990;SDS011;8100;50.994;4.538;2023-12-20T01:21:05;6.68;;;1.20;;
15990;SDS011;8100;50.994;4.538;2023-12-20T01:23:52;4.55;;;1.13;;
15990;SDS011;8100;50.994;4.538;2023-12-20T01:26:42;4.45;;;1.10;;
15990;SDS011;8100;50.994;4.538;2023-12-20T01:29:29;4.40;;;1.00;;
15990;SDS011;8100;50.994;4.538;2023-12-20T01:32:16;10.02;;;1.77;;
15990;SDS011;8100;50.994;4.538;2023-12-20T01:35:03;7.50;;;1.02;;
15990;SDS011;8100;50.994;4.538;2023-12-20T01:37:50;7.32;;;1.30;;
15990;SDS011;8100;50.994;4.538;2023-12-20T01:40:41;2.92;;;0.95;;
15990;SDS011;8100;50.994;4.538;2023-12-20T01:43:30;5.72;;;1.27;;
15990;SDS011;8100;50.994;4.538;2023-12-20T01:46:17;2.90;;;0.85;;
15990;SDS011;8100;50.994;4.538;2023-12-20T01:49:05;5.03;;;1.27;;
15990;SDS011;8100;50.994;4.538;2023-12-20T01:51:52;7.00;;;1.35;;
15990;SDS011;8100;50.994;4.538;2023-12-20T01:54:40;3.38;;;1.13;;
15990;SDS011;8100;50.994;4.538;2023-12-20T01:57:28;3.60;;;1.33;;
15990;SDS011;8100;50.994;4.538;2023-12-20T02:00:16;9.85;;;1.65;;
15990;SDS011;8100;50.994;4.538;2023-12-20T02:03:08;3.17;;;1.27;;
15990;SDS011;8100;50.994;4.538;2023-12-20T02:05:56;4.47;;;1.17;;
15990;SDS011;8100;50.994;4.538;2023-12-20T02:08:43;6.68;;;1.20;;
15990;SDS011;8100;50.994;4.538;2023-12-20T02:11:30;5.72;;;1.23;;
15990;SDS011;8100;50.994;4.538;2023-12-20T02:14:17;5.13;;;1.33;;
15990;SDS011;8100;50.994;4.538;2023-12-20T02:17:05;7.38;;;1.50;;
15990;SDS011;8100;50.994;4.538;2023-12-20T02:19:52;6.35;;;1.23;;
15990;SDS011;8100;50.994;4.538;2023-12-20T02:22:41;6.28;;;1.50;;
15990;SDS011;8100;50.994;4.538;2023-12-20T02:25:28;4.82;;;1.33;;
15990;SDS011;8100;50.994;4.538;2023-12-20T02:28:15;4.15;;;1.38;;
15990;SDS011;8100;50.994;4.538;2023-12-20T02:31:03;4.28;;;1.25;;
15990;SDS011;8100;50.994;4.538;2023-12-20T02:33:50;3.50;;;1.20;;
15990;SDS011;8100;50.994;4.538;2023-12-20T02:36:37;7.07;;;1.30;;
15990;SDS011;8100;50.994;4.538;2023-12-20T02:39:25;6.65;;;1.30;;
15990;SDS011;8100;50.994;4.538;2023-12-20T02:42:12;6.85;;;1.63;;
15990;SDS011;8100;50.994;4.538;2023-12-20T02:44:59;8.10;;;1.20;;
15990;SDS011;8100;50.994;4.538;2023-12-20T02:47:47;7.18;;;1.42;;
15990;SDS011;8100;50.994;4.538;2023-12-20T02:50:34;4.85;;;1.10;;
15990;SDS011;8100;50.994;4.538;2023-12-20T02:53:22;3.15;;;0.93;;
15990;SDS011;8100;50.994;4.538;2023-12-20T02:56:10;7.18;;;1.65;;
15990;SDS011;8100;50.994;4.538;2023-12-20T02:58:57;3.63;;;1.20;;
15990;SDS011;8100;50.994;4.538;2023-12-20T03:01:44;6.22;;;1.25;;
15990;SDS011;8100;50.994;4.538;2023-12-20T03:04:32;7.72;;;1.33;;
15990;SDS011;8100;50.994;4.538;2023-12-20T03:07:19;4.43;;;1.27;;
15990;SDS011;8100;50.994;4.538;2023-12-20T03:10:06;6.80;;;1.63;;
15990;SDS011;8100;50.994;4.538;2023-12-20T03:12:56;8.55;;;1.38;;
15990;SDS011;8100;50.994;4.538;2023-12-20T03:15:43;8.88;;;1.70;;
15990;SDS011;8100;50.994;4.538;2023-12-20T03:18:30;8.40;;;1.40;;
15990;SDS011;8100;50.994;4.538;2023-12-20T03:21:17;9.13;;;1.30;;
15990;SDS011;8100;50.994;4.538;2023-12-20T03:24:04;6.85;;;1.13;;
15990;SDS011;8100;50.994;4.538;2023-12-20T03:26:51;6.35;;;1.67;;
15990;SDS011;8100;50.994;4.538;2023-12-20T03:29:40;7.00;;;1.50;;
15990;SDS011;8100;50.994;4.538;2023-12-20T03:32:27;6.55;;;1.30;;
15990;SDS011;8100;50.994;4.538;2023-12-20T03:35:14;6.47;;;1.48;;
15990;SDS011;8100;50.994;4.538;2023-12-20T03:38:01;10.38;;;1.67;;
15990;SDS011;8100;50.994;4.538;2023-12-20T03:40:48;6.25;;;1.70;;
15990;SDS011;8100;50.994;4.538;2023-12-20T03:43:36;5.88;;;1.30;;
15990;SDS011;8100;50.994;4.538;2023-12-20T03:46:24;4.90;;;1.55;;
15990;SDS011;8100;50.994;4.538;2023-12-20T03:49:11;6.35;;;1.40;;
15990;SDS011;8100;50.994;4.538;2023-12-20T03:51:58;5.82;;;1.40;;
15990;SDS011;8100;50.994;4.538;2023-12-20T03:54:45;6.90;;;1.50;;
15990;SDS011;8100;50.994;4.538;2023-12-20T03:57:32;7.30;;;1.48;;
15990;SDS011;8100;50.994;4.538;2023-12-20T04:00:34;8.52;;;1.60;;
15990;SDS011;8100;50.994;4.538;2023-12-20T04:03:22;5.13;;;1.40;;
15990;SDS011;8100;50.994;4.538;2023-12-20T04:06:09;7.60;;;1.58;;
15990;SDS011;8100;50.994;4.538;2023-12-20T04:08:56;7.70;;;1.63;;
15990;SDS011;8100;50.994;4.538;2023-12-20T04:11:43;7.03;;;1.83;;
15990;SDS011;8100;50.994;4.538;2023-12-20T04:14:30;7.55;;;1.42;;
15990;SDS011;8100;50.994;4.538;2023-12-20T04:17:17;9.93;;;1.67;;
15990;SDS011;8100;50.994;4.538;2023-12-20T04:20:09;10.90;;;2.00;;
15990;SDS011;8100;50.994;4.538;2023-12-20T04:22:56;6.93;;;1.52;;
15990;SDS011;8100;50.994;4.538;2023-12-20T04:25:56;8.55;;;1.75;;
15990;SDS011;8100;50.994;4.538;2023-12-20T04:28:43;4.63;;;1.48;;
15990;SDS011;8100;50.994;4.538;2023-12-20T04:31:30;7.63;;;1.70;;
15990;SDS011;8100;50.994;4.538;2023-12-20T04:34:17;11.27;;;1.42;;
15990;SDS011;8100;50.994;4.538;2023-12-20T04:37:05;8.27;;;1.63;;
15990;SDS011;8100;50.994;4.538;2023-12-20T04:39:52;5.93;;;1.45;;
15990;SDS011;8100;50.994;4.538;2023-12-20T04:42:39;9.88;;;1.70;;
15990;SDS011;8100;50.994;4.538;2023-12-20T04:45:27;8.50;;;1.65;;
15990;SDS011;8100;50.994;4.538;2023-12-20T04:48:14;11.07;;;1.52;;
15990;SDS011;8100;50.994;4.538;2023-12-20T04:51:01;11.00;;;1.55;;
15990;SDS011;8100;50.994;4.538;2023-12-20T04:53:49;9.35;;;1.50;;
15990;SDS011;8100;50.994;4.538;2023-12-20T04:56:36;14.68;;;2.00;;
15990;SDS011;8100;50.994;4.538;2023-12-20T04:59:23;10.55;;;1.60;;
15990;SDS011;8100;50.994;4.538;2023-12-20T05:02:10;10.20;;;1.60;;
15990;SDS011;8100;50.994;4.538;2023-12-20T05:04:57;8.52;;;1.58;;
15990;SDS011;8100;50.994;4.538;2023-12-20T05:07:44;8.38;;;1.80;;
15990;SDS011;8100;50.994;4.538;2023-12-20T05:10:33;18.67;;;2.00;;
15990;SDS011;8100;50.994;4.538;2023-12-20T05:13:21;6.85;;;1.83;;
15990;SDS011;8100;50.994;4.538;2023-12-20T05:16:08;13.57;;;1.90;;
15990;SDS011;8100;50.994;4.538;2023-12-20T05:18:56;5.70;;;1.50;;
15990;SDS011;8100;50.994;4.538;2023-12-20T05:21:44;6.13;;;1.42;;
15990;SDS011;8100;50.994;4.538;2023-12-20T05:24:31;9.95;;;1.50;;
15990;SDS011;8100;50.994;4.538;2023-12-20T05:27:20;6.22;;;1.50;;
15990;SDS011;8100;50.994;4.538;2023-12-20T05:30:07;3.20;;;1.42;;
15990;SDS011;8100;50.994;4.538;2023-12-20T05:32:56;10.05;;;1.80;;
15990;SDS011;8100;50.994;4.538;2023-12-20T05:35:43;5.93;;;1.75;;
15990;SDS011;8100;50.994;4.538;2023-12-20T05:38:30;8.80;;;1.75;;
15990;SDS011;8100;50.994;4.538;2023-12-20T05:41:17;7.53;;;1.40;;
15990;SDS011;8100;50.994;4.538;2023-12-20T05:44:05;10.35;;;1.38;;
15990;SDS011;8100;50.994;4.538;2023-12-20T05:46:52;13.27;;;2.00;;
15990;SDS011;8100;50.994;4.538;2023-12-20T05:49:39;10.50;;;2.00;;
15990;SDS011;8100;50.994;4.538;2023-12-20T05:52:26;6.80;;;1.88;;
15990;SDS011;8100;50.994;4.538;2023-12-20T05:55:13;9.88;;;1.63;;
15990;SDS011;8100;50.994;4.538;2023-12-20T05:58:05;6.32;;;1.73;;
15990;SDS011;8100;50.994;4.538;2023-12-20T06:00:53;9.50;;;1.35;;
15990;SDS011;8100;50.994;4.538;2023-12-20T06:03:41;7.22;;;1.70;;
15990;SDS011;8100;50.994;4.538;2023-12-20T06:06:28;7.22;;;1.70;;
15990;SDS011;8100;50.994;4.538;2023-12-20T06:09:15;14.00;;;1.75;;
15990;SDS011;8100;50.994;4.538;2023-12-20T06:12:03;8.15;;;1.50;;
15990;SDS011;8100;50.994;4.538;2023-12-20T06:14:51;8.52;;;1.80;;
15990;SDS011;8100;50.994;4.538;2023-12-20T06:17:39;7.85;;;1.80;;
15990;SDS011;8100;50.994;4.538;2023-12-20T06:20:26;6.78;;;1.30;;
15990;SDS011;8100;50.994;4.538;2023-12-20T06:23:13;8.77;;;1.63;;
15990;SDS011;8100;50.994;4.538;2023-12-20T06:26:01;7.95;;;1.50;;
15990;SDS011;8100;50.994;4.538;2023-12-20T06:28:48;8.60;;;1.58;;
15990;SDS011;8100;50.994;4.538;2023-12-20T06:31:35;7.90;;;1.80;;
15990;SDS011;8100;50.994;4.538;2023-12-20T06:34:23;9.93;;;1.83;;
15990;SDS011;8100;50.994;4.538;2023-12-20T06:37:10;8.55;;;1.65;;
15990;SDS011;8100;50.994;4.538;2023-12-20T06:40:07;9.10;;;1.50;;
15990;SDS011;8100;50.994;4.538;2023-12-20T06:42:54;11.05;;;1.83;;
15990;SDS011;8100;50.994;4.538;2023-12-20T06:45:41;4.78;;;1.50;;
15990;SDS011;8100;50.994;4.538;2023-12-20T06:48:28;6.90;;;1.60;;
15990;SDS011;8100;50.994;4.538;2023-12-20T06:51:17;6.32;;;1.52;;
15990;SDS011;8100;50.994;4.538;2023-12-20T06:54:05;7.57;;;1.58;;
15990;SDS011;8100;50.994;4.538;2023-12-20T06:56:53;5.18;;;1.40;;
15990;SDS011;8100;50.994;4.538;2023-12-20T06:59:40;7.25;;;1.40;;
15990;SDS011;8100;50.994;4.538;2023-12-20T07:02:27;8.23;;;1.88;;
15990;SDS011;8100;50.994;4.538;2023-12-20T07:05:16;7.55;;;1.55;;
15990;SDS011;8100;50.994;4.538;2023-12-20T07:08:06;6.22;;;1.60;;
15990;SDS011;8100;50.994;4.538;2023-12-20T07:10:53;6.13;;;1.45;;
15990;SDS011;8100;50.994;4.538;2023-12-20T07:13:40;7.38;;;1.73;;
15990;SDS011;8100;50.994;4.538;2023-12-20T07:16:27;7.25;;;1.60;;
15990;SDS011;8100;50.994;4.538;2023-12-20T07:19:14;5.78;;;1.55;;
15990;SDS011;8100;50.994;4.538;2023-12-20T07:22:02;8.32;;;1.45;;
15990;SDS011;8100;50.994;4.538;2023-12-20T07:24:50;2.83;;;1.00;;
15990;SDS011;8100;50.994;4.538;2023-12-20T07:27:39;6.68;;;1.10;;
15990;SDS011;8100;50.994;4.538;2023-12-20T07:30:27;4.93;;;1.10;;
15990;SDS011;8100;50.994;4.538;2023-12-20T07:33:14;4.55;;;1.55;;
15990;SDS011;8100;50.994;4.538;2023-12-20T07:36:01;5.88;;;1.23;;
15990;SDS011;8100;50.994;4.538;2023-12-20T07:38:48;4.88;;;1.00;;
15990;SDS011;8100;50.994;4.538;2023-12-20T07:41:42;5.80;;;0.93;;
15990;SDS011;8100;50.994;4.538;2023-12-20T07:44:29;4.72;;;1.00;;
15990;SDS011;8100;50.994;4.538;2023-12-20T07:47:20;4.85;;;1.13;;
15990;SDS011;8100;50.994;4.538;2023-12-20T07:50:07;5.13;;;1.25;;
15990;SDS011;8100;50.994;4.538;2023-12-20T07:52:55;6.80;;;1.15;;
15990;SDS011;8100;50.994;4.538;2023-12-20T07:55:52;3.95;;;1.00;;
15990;SDS011;8100;50.994;4.538;2023-12-20T07:58:40;5.28;;;0.90;;
15990;SDS011;8100;50.994;4.538;2023-12-20T08:01:27;7.50;;;1.20;;
15990;SDS011;8100;50.994;4.538;2023-12-20T08:04:15;4.90;;;1.10;;
15990;SDS011;8100;50.994;4.538;2023-12-20T08:07:03;6.53;;;1.13;;
15990;SDS011;8100;50.994;4.538;2023-12-20T08:09:50;5.35;;;1.23;;
15990;SDS011;8100;50.994;4.538;2023-12-20T08:12:38;7.30;;;1.15;;
15990;SDS011;8100;50.994;4.538;2023-12-20T08:15:27;6.97;;;1.17;;
15990;SDS011;8100;50.994;4.538;2023-12-20T08:18:14;4.78;;;1.10;;
15990;SDS011;8100;50.994;4.538;2023-12-20T08:21:01;2.63;;;1.15;;
15990;SDS011;8100;50.994;4.538;2023-12-20T08:23:48;2.38;;;1.05;;
15990;SDS011;8100;50.994;4.538;2023-12-20T08:26:35;4.75;;;1.02;;
15990;SDS011;8100;50.994;4.538;2023-12-20T08:29:22;2.33;;;1.00;;
15990;SDS011;8100;50.994;4.538;2023-12-20T08:32:11;7.22;;;1.02;;
15990;SDS011;8100;50.994;4.538;2023-12-20T08:34:58;3.70;;;1.20;;
15990;SDS011;8100;50.994;4.538;2023-12-20T08:37:45;3.83;;;0.80;;
15990;SDS011;8100;50.994;4.538;2023-12-20T08:40:32;3.72;;;0.75;;
15990;SDS011;8100;50.994;4.538;2023-12-20T08:43:19;4.95;;;1.10;;
15990;SDS011;8100;50.994;4.538;2023-12-20T08:46:06;3.50;;;1.10;;
15990;SDS011;8100;50.994;4.538;2023-12-20T08:48:57;3.20;;;0.73;;
15990;SDS011;8100;50.994;4.538;2023-12-20T08:51:46;4.43;;;0.90;;
15990;SDS011;8100;50.994;4.538;2023-12-20T08:54:34;6.07;;;1.02;;
15990;SDS011;8100;50.994;4.538;2023-12-20T08:57:21;3.33;;;0.80;;
15990;SDS011;8100;50.994;4.538;2023-12-20T09:00:09;3.42;;;0.95;;
15990;SDS011;8100;50.994;4.538;2023-12-20T09:02:57;3.95;;;1.05;;
15990;SDS011;8100;50.994;4.538;2023-12-20T09:05:46;3.55;;;0.90;;
15990;SDS011;8100;50.994;4.538;2023-12-20T09:08:33;4.28;;;1.00;;
15990;SDS011;8100;50.994;4.538;2023-12-20T09:11:20;1.60;;;0.77;;
15990;SDS011;8100;50.994;4.538;2023-12-20T09:14:07;5.50;;;1.10;;
15990;SDS011;8100;50.994;4.538;2023-12-20T09:16:54;4.78;;;0.98;;
15990;SDS011;8100;50.994;4.538;2023-12-20T09:19:41;3.47;;;0.73;;
15990;SDS011;8100;50.994;4.538;2023-12-20T09:22:30;2.85;;;0.90;;
15990;SDS011;8100;50.994;4.538;2023-12-20T09:25:17;4.47;;;0.93;;
15990;SDS011;8100;50.994;4.538;2023-12-20T09:28:04;3.50;;;0.98;;
15990;SDS011;8100;50.994;4.538;2023-12-20T09:30:51;4.65;;;1.05;;
15990;SDS011;8100;50.994;4.538;2023-12-20T09:33:38;4.40;;;1.38;;
15990;SDS011;8100;50.994;4.538;2023-12-20T09:36:25;10.93;;;1.10;;
15990;SDS011;8100;50.994;4.538;2023-12-20T09:39:14;4.43;;;0.95;;
15990;SDS011;8100;50.994;4.538;2023-12-20T09:42:04;6.90;;;1.42;;
15990;SDS011;8100;50.994;4.538;2023-12-20T09:44:52;4.65;;;1.00;;
15990;SDS011;8100;50.994;4.538;2023-12-20T09:47:39;3.95;;;1.38;;
15990;SDS011;8100;50.994;4.538;2023-12-20T09:50:27;3.88;;;1.35;;
15990;SDS011;8100;50.994;4.538;2023-12-20T09:53:15;2.28;;;0.90;;
15990;SDS011;8100;50.994;4.538;2023-12-20T09:56:07;5.00;;;1.38;;
15990;SDS011;8100;50.994;4.538;2023-12-20T09:58:54;3.35;;;1.10;;
15990;SDS011;8100;50.994;4.538;2023-12-20T10:01:52;6.43;;;1.08;;
15990;SDS011;8100;50.994;4.538;2023-12-20T10:04:45;5.82;;;1.15;;
15990;SDS011;8100;50.994;4.538;2023-12-20T10:07:34;3.28;;;0.95;;
15990;SDS011;8100;50.994;4.538;2023-12-20T10:10:21;5.63;;;0.93;;
15990;SDS011;8100;50.994;4.538;2023-12-20T10:13:10;5.03;;;1.00;;
15990;SDS011;8100;50.994;4.538;2023-12-20T10:15:58;8.55;;;1.10;;
15990;SDS011;8100;50.994;4.538;2023-12-20T10:18:46;5.32;;;1.00;;
15990;SDS011;8100;50.994;4.538;2023-12-20T10:21:33;5.97;;;1.10;;
15990;SDS011;8100;50.994;4.538;2023-12-20T10:24:20;4.50;;;1.30;;
15990;SDS011;8100;50.994;4.538;2023-12-20T10:27:08;4.15;;;0.93;;
15990;SDS011;8100;50.994;4.538;2023-12-20T10:29:57;4.88;;;1.00;;
15990;SDS011;8100;50.994;4.538;2023-12-20T10:32:45;4.25;;;1.30;;
15990;SDS011;8100;50.994;4.538;2023-12-20T10:35:37;4.32;;;1.15;;
15990;SDS011;8100;50.994;4.538;2023-12-20T10:38:25;4.13;;;1.30;;
15990;SDS011;8100;50.994;4.538;2023-12-20T10:41:14;4.47;;;1.20;;
15990;SDS011;8100;50.994;4.538;2023-12-20T10:44:03;6.75;;;1.27;;
15990;SDS011;8100;50.994;4.538;2023-12-20T10:46:53;6.15;;;1.30;;
15990;SDS011;8100;50.994;4.538;2023-12-20T10:49:43;4.60;;;1.30;;
15990;SDS011;8100;50.994;4.538;2023-12-20T10:52:31;6.93;;;1.75;;
15990;SDS011;8100;50.994;4.538;2023-12-20T10:55:21;2.42;;;1.00;;
15990;SDS011;8100;50.994;4.538;2023-12-20T10:58:08;3.53;;;1.00;;
15990;SDS011;8100;50.994;4.538;2023-12-20T11:00:57;3.47;;;1.00;;
15990;SDS011;8100;50.994;4.538;2023-12-20T11:03:50;8.25;;;1.90;;
15990;SDS011;8100;50.994;4.538;2023-12-20T11:06:40;5.55;;;1.20;;
15990;SDS011;8100;50.994;4.538;2023-12-20T11:09:35;5.78;;;1.00;;
15990;SDS011;8100;50.994;4.538;2023-12-20T11:12:30;5.80;;;1.20;;
15990;SDS011;8100;50.994;4.538;2023-12-20T11:15:24;6.88;;;1.25;;
15990;SDS011;8100;50.994;4.538;2023-12-20T11:18:12;5.82;;;1.25;;
15990;SDS011;8100;50.994;4.538;2023-12-20T11:21:01;2.75;;;0.80;;
15990;SDS011;8100;50.994;4.538;2023-12-20T11:23:51;6.20;;;1.20;;
15990;SDS011;8100;50.994;4.538;2023-12-20T11:26:38;5.40;;;1.40;;
15990;SDS011;8100;50.994;4.538;2023-12-20T11:29:33;3.55;;;1.05;;
15990;SDS011;8100;50.994;4.538;2023-12-20T11:32:28;4.80;;;1.20;;
15990;SDS011;8100;50.994;4.538;2023-12-20T11:35:18;5.10;;;1.10;;
15990;SDS011;8100;50.994;4.538;2023-12-20T11:38:08;5.47;;;1.65;;
15990;SDS011;8100;50.994;4.538;2023-12-20T11:40:56;4.38;;;1.50;;
15990;SDS011;8100;50.994;4.538;2023-12-20T11:43:48;4.68;;;1.23;;
15990;SDS011;8100;50.994;4.538;2023-12-20T11:46:38;3.80;;;0.98;;
15990;SDS011;8100;50.994;4.538;2023-12-20T11:49:26;3.97;;;1.05;;
15990;SDS011;8100;50.994;4.538;2023-12-20T11:52:15;6.47;;;0.98;;
15990;SDS011;8100;50.994;4.538;2023-12-20T11:55:04;4.20;;;0.93;;
15990;SDS011;8100;50.994;4.538;2023-12-20T11:57:52;3.17;;;0.90;;
15990;SDS011;8100;50.994;4.538;2023-12-20T12:00:39;5.43;;;1.55;;
15990;SDS011;8100;50.994;4.538;2023-12-20T12:03:28;5.93;;;1.02;;
15990;SDS011;8100;50.994;4.538;2023-12-20T12:06:15;2.50;;;1.08;;
15990;SDS011;8100;50.994;4.538;2023-12-20T12:09:02;2.33;;;0.88;;
15990;SDS011;8100;50.994;4.538;2023-12-20T12:11:51;5.20;;;1.00;;
15990;SDS011;8100;50.994;4.538;2023-12-20T12:14:38;2.67;;;0.90;;
15990;SDS011;8100;50.994;4.538;2023-12-20T12:17:27;2.85;;;1.00;;
15990;SDS011;8100;50.994;4.538;2023-12-20T12:20:22;6.65;;;1.33;;
15990;SDS011;8100;50.994;4.538;2023-12-20T12:23:12;3.30;;;0.90;;
15990;SDS011;8100;50.994;4.538;2023-12-20T12:25:59;3.30;;;1.15;;
15990;SDS011;8100;50.994;4.538;2023-12-20T12:28:51;7.05;;;1.20;;
15990;SDS011;8100;50.994;4.538;2023-12-20T12:31:38;4.50;;;1.00;;
15990;SDS011;8100;50.994;4.538;2023-12-20T12:34:27;4.80;;;1.00;;
15990;SDS011;8100;50.994;4.538;2023-12-20T12:37:14;8.63;;;1.20;;
15990;SDS011;8100;50.994;4.538;2023-12-20T12:40:03;5.15;;;1.00;;
15990;SDS011;8100;50.994;4.538;2023-12-20T12:42:52;2.65;;;1.00;;
15990;SDS011;8100;50.994;4.538;2023-12-20T12:45:41;3.78;;;1.00;;
15990;SDS011;8100;50.994;4.538;2023-12-20T12:48:28;7.50;;;1.20;;
15990;SDS011;8100;50.994;4.538;2023-12-20T12:51:15;4.50;;;0.93;;
15990;SDS011;8100;50.994;4.538;2023-12-20T12:54:02;5.07;;;1.30;;
15990;SDS011;8100;50.994;4.538;2023-12-20T12:56:51;3.53;;;1.10;;
15990;SDS011;8100;50.994;4.538;2023-12-20T12:59:39;5.53;;;1.00;;
15990;SDS011;8100;50.994;4.538;2023-12-20T13:02:27;6.07;;;1.38;;
15990;SDS011;8100;50.994;4.538;2023-12-20T13:05:14;6.22;;;1.20;;
15990;SDS011;8100;50.994;4.538;2023-12-20T13:08:08;3.25;;;0.98;;
15990;SDS011;8100;50.994;4.538;2023-12-20T13:10:58;4.97;;;0.95;;
15990;SDS011;8100;50.994;4.538;2023-12-20T13:13:49;5.43;;;1.20;;
15990;SDS011;8100;50.994;4.538;2023-12-20T13:16:36;4.15;;;1.00;;
15990;SDS011;8100;50.994;4.538;2023-12-20T13:19:24;4.32;;;1.15;;
15990;SDS011;8100;50.994;4.538;2023-12-20T13:22:11;4.45;;;1.20;;
15990;SDS011;8100;50.994;4.538;2023-12-20T13:24:58;5.00;;;1.40;;
15990;SDS011;8100;50.994;4.538;2023-12-20T13:27:46;3.08;;;0.90;;
15990;SDS011;8100;50.994;4.538;2023-12-20T13:30:33;8.13;;;1.30;;
15990;SDS011;8100;50.994;4.538;2023-12-20T13:33:20;3.70;;;1.20;;
15990;SDS011;8100;50.994;4.538;2023-12-20T13:36:09;2.67;;;0.90;;
15990;SDS011;8100;50.994;4.538;2023-12-20T13:38:56;3.22;;;1.23;;
15990;SDS011;8100;50.994;4.538;2023-12-20T13:41:43;3.60;;;1.05;;
15990;SDS011;8100;50.994;4.538;2023-12-20T13:44:30;3.72;;;1.10;;
15990;SDS011;8100;50.994;4.538;2023-12-20T13:47:17;3.95;;;0.70;;
15990;SDS011;8100;50.994;4.538;2023-12-20T13:50:05;6.05;;;0.90;;
15990;SDS011;8100;50.994;4.538;2023-12-20T13:52:54;11.15;;;1.42;;
15990;SDS011;8100;50.994;4.538;2023-12-20T13:55:41;5.32;;;1.30;;
15990;SDS011;8100;50.994;4.538;2023-12-20T13:58:28;4.60;;;1.08;;
15990;SDS011;8100;50.994;4.538;2023-12-20T14:01:16;2.50;;;0.90;;
15990;SDS011;8100;50.994;4.538;2023-12-20T14:04:03;4.60;;;1.15;;
15990;SDS011;8100;50.994;4.538;2023-12-20T14:06:50;3.97;;;1.15;;
15990;SDS011;8100;50.994;4.538;2023-12-20T14:09:39;5.40;;;1.23;;
15990;SDS011;8100;50.994;4.538;2023-12-20T14:12:30;6.45;;;1.08;;
15990;SDS011;8100;50.994;4.538;2023-12-20T14:15:21;3.88;;;1.00;;
15990;SDS011;8100;50.994;4.538;2023-12-20T14:18:10;7.28;;;1.48;;
15990;SDS011;8100;50.994;4.538;2023-12-20T14:21:00;4.90;;;1.35;;
15990;SDS011;8100;50.994;4.538;2023-12-20T14:23:47;3.83;;;1.05;;
15990;SDS011;8100;50.994;4.538;2023-12-20T14:26:35;4.55;;;1.08;;
15990;SDS011;8100;50.994;4.538;2023-12-20T14:29:23;4.28;;;0.88;;
15990;SDS011;8100;50.994;4.538;2023-12-20T14:32:10;2.75;;;0.77;;
15990;SDS011;8100;50.994;4.538;2023-12-20T14:34:59;6.03;;;1.02;;
15990;SDS011;8100;50.994;4.538;2023-12-20T14:37:46;6.63;;;1.17;;
15990;SDS011;8100;50.994;4.538;2023-12-20T14:40:33;3.72;;;0.90;;
15990;SDS011;8100;50.994;4.538;2023-12-20T14:43:22;6.57;;;1.30;;
15990;SDS011;8100;50.994;4.538;2023-12-20T14:46:09;4.97;;;1.17;;
15990;SDS011;8100;50.994;4.538;2023-12-20T14:48:56;2.63;;;1.02;;
15990;SDS011;8100;50.994;4.538;2023-12-20T14:51:43;5.13;;;1.10;;
15990;SDS011;8100;50.994;4.538;2023-12-20T14:54:32;6.50;;;1.20;;
15990;SDS011;8100;50.994;4.538;2023-12-20T14:57:19;7.20;;;1.55;;
15990;SDS011;8100;50.994;4.538;2023-12-20T15:00:08;3.95;;;0.95;;
15990;SDS011;8100;50.994;4.538;2023-12-20T15:03:01;7.00;;;0.93;;
15990;SDS011;8100;50.994;4.538;2023-12-20T15:05:49;5.40;;;1.00;;
15990;SDS011;8100;50.994;4.538;2023-12-20T15:08:36;3.03;;;1.00;;
15990;SDS011;8100;50.994;4.538;2023-12-20T15:11:27;3.22;;;0.85;;
15990;SDS011;8100;50.994;4.538;2023-12-20T15:14:15;3.03;;;0.93;;
15990;SDS011;8100;50.994;4.538;2023-12-20T15:17:06;2.20;;;0.77;;
15990;SDS011;8100;50.994;4.538;2023-12-20T15:19:53;2.20;;;0.73;;
15990;SDS011;8100;50.994;4.538;2023-12-20T15:22:40;3.22;;;1.08;;
15990;SDS011;8100;50.994;4.538;2023-12-20T15:25:30;3.58;;;0.90;;
15990;SDS011;8100;50.994;4.538;2023-12-20T15:28:17;3.38;;;0.77;;
15990;SDS011;8100;50.994;4.538;2023-12-20T15:31:04;5.20;;;0.77;;
15990;SDS011;8100;50.994;4.538;2023-12-20T15:33:53;4.55;;;0.80;;
15990;SDS011;8100;50.994;4.538;2023-12-20T15:36:41;4.43;;;0.93;;
15990;SDS011;8100;50.994;4.538;2023-12-20T15:39:29;5.03;;;1.10;;
15990;SDS011;8100;50.994;4.538;2023-12-20T15:42:16;4.88;;;1.10;;
15990;SDS011;8100;50.994;4.538;2023-12-20T15:45:05;4.07;;;1.00;;
15990;SDS011;8100;50.994;4.538;2023-12-20T15:47:53;6.63;;;1.10;;
15990;SDS011;8100;50.994;4.538;2023-12-20T15:50:41;3.13;;;0.82;;
15990;SDS011;8100;50.994;4.538;2023-12-20T15:53:28;4.22;;;0.90;;
15990;SDS011;8100;50.994;4.538;2023-12-20T15:56:15;3.10;;;0.75;;
15990;SDS011;8100;50.994;4.538;2023-12-20T15:59:02;3.80;;;0.95;;
15990;SDS011;8100;50.994;4.538;2023-12-20T16:01:50;1.65;;;0.82;;
15990;SDS011;8100;50.994;4.538;2023-12-20T16:04:37;2.47;;;0.90;;
15990;SDS011;8100;50.994;4.538;2023-12-20T16:07:25;4.80;;;1.23;;
15990;SDS011;8100;50.994;4.538;2023-12-20T16:10:32;10.95;;;1.40;;
15990;SDS011;8100;50.994;4.538;2023-12-20T16:13:19;4.00;;;1.33;;
15990;SDS011;8100;50.994;4.538;2023-12-20T16:16:06;9.75;;;1.90;;
15990;SDS011;8100;50.994;4.538;2023-12-20T16:18:53;8.43;;;2.50;;
15990;SDS011;8100;50.994;4.538;2023-12-20T16:21:40;7.43;;;1.25;;
15990;SDS011;8100;50.994;4.538;2023-12-20T16:24:29;9.38;;;1.90;;
15990;SDS011;8100;50.994;4.538;2023-12-20T16:27:16;7.00;;;1.85;;
15990;SDS011;8100;50.994;4.538;2023-12-20T16:30:04;6.90;;;1.67;;
15990;SDS011;8100;50.994;4.538;2023-12-20T16:32:52;3.72;;;1.50;;
15990;SDS011;8100;50.994;4.538;2023-12-20T16:35:39;4.25;;;1.30;;
15990;SDS011;8100;50.994;4.538;2023-12-20T16:38:26;6.55;;;1.25;;
15990;SDS011;8100;50.994;4.538;2023-12-20T16:41:14;5.05;;;1.20;;
15990;SDS011;8100;50.994;4.538;2023-12-20T16:44:01;7.68;;;1.55;;
15990;SDS011;8100;50.994;4.538;2023-12-20T16:46:48;6.68;;;1.30;;
15990;SDS011;8100;50.994;4.538;2023-12-20T16:49:35;4.70;;;1.35;;
15990;SDS011;8100;50.994;4.538;2023-12-20T16:52:22;5.70;;;1.50;;
15990;SDS011;8100;50.994;4.538;2023-12-20T16:55:10;7.85;;;1.50;;
15990;SDS011;8100;50.994;4.538;2023-12-20T16:57:59;6.45;;;1.30;;
15990;SDS011;8100;50.994;4.538;2023-12-20T17:00:46;9.43;;;1.67;;
15990;SDS011;8100;50.994;4.538;2023-12-20T17:03:32;8.80;;;1.38;;
15990;SDS011;8100;50.994;4.538;2023-12-20T17:06:20;6.85;;;1.38;;
15990;SDS011;8100;50.994;4.538;2023-12-20T17:09:08;5.38;;;1.45;;